sensor_id;sensor_type;location;lat;lon;timestamp;P1;durP1;ratioP1;P2;durP2;ratioP2
62610;SDS011;48683;48.084;17.272;2023-03-24T00:01:01;30.27;;;21.25;;
62610;SDS011;48683;48.084;17.272;2023-03-24T00:03:28;29.45;;;21.50;;
62610;SDS011;48683;48.084;17.272;2023-03-24T00:06:01;28.30;;;22.50;;
62610;SDS011;48683;48.084;17.272;2023-03-24T00:08:29;26.52;;;20.48;;
62610;SDS011;48683;48.084;17.272;2023-03-24T00:11:09;26.42;;;19.83;;
62610;SDS011;48683;48.084;17.272;2023-03-24T00:13:36;27.73;;;20.73;;
62610;SDS011;48683;48.084;17.272;2023-03-24T00:16:12;25.73;;;20.17;;
62610;SDS011;48683;48.084;17.272;2023-03-24T00:18:40;26.65;;;19.10;;
62610;SDS011;48683;48.084;17.272;2023-03-24T00:21:06;32.33;;;21.05;;
62610;SDS011;48683;48.084;17.272;2023-03-24T00:23:33;25.75;;;21.35;;
62610;SDS011;48683;48.084;17.272;2023-03-24T00:26:00;27.27;;;20.38;;
62610;SDS011;48683;48.084;17.272;2023-03-24T00:28:39;27.77;;;21.40;;
62610;SDS011;48683;48.084;17.272;2023-03-24T00:31:07;25.83;;;20.73;;
62610;SDS011;48683;48.084;17.272;2023-03-24T00:33:33;28.35;;;21.15;;
62610;SDS011;48683;48.084;17.272;2023-03-24T00:35:59;25.52;;;20.38;;
62610;SDS011;48683;48.084;17.272;2023-03-24T00:38:29;26.02;;;20.33;;
62610;SDS011;48683;48.084;17.272;2023-03-24T00:40:55;29.48;;;21.10;;
62610;SDS011;48683;48.084;17.272;2023-03-24T00:43:20;26.55;;;21.15;;
62610;SDS011;48683;48.084;17.272;2023-03-24T00:45:46;29.95;;;21.42;;
62610;SDS011;48683;48.084;17.272;2023-03-24T00:48:12;31.55;;;20.60;;
62610;SDS011;48683;48.084;17.272;2023-03-24T00:50:38;26.98;;;21.48;;
62610;SDS011;48683;48.084;17.272;2023-03-24T00:53:04;26.17;;;21.20;;
62610;SDS011;48683;48.084;17.272;2023-03-24T00:55:29;26.98;;;19.85;;
62610;SDS011;48683;48.084;17.272;2023-03-24T00:57:56;29.40;;;21.95;;
62610;SDS011;48683;48.084;17.272;2023-03-24T01:00:22;32.60;;;21.15;;
62610;SDS011;48683;48.084;17.272;2023-03-24T01:02:49;25.60;;;20.60;;
62610;SDS011;48683;48.084;17.272;2023-03-24T01:05:19;29.65;;;21.25;;
62610;SDS011;48683;48.084;17.272;2023-03-24T01:07:46;26.17;;;18.73;;
62610;SDS011;48683;48.084;17.272;2023-03-24T01:10:16;32.17;;;20.48;;
62610;SDS011;48683;48.084;17.272;2023-03-24T01:12:43;26.30;;;20.10;;
62610;SDS011;48683;48.084;17.272;2023-03-24T01:15:16;27.00;;;19.77;;
62610;SDS011;48683;48.084;17.272;2023-03-24T01:17:43;30.38;;;20.63;;
62610;SDS011;48683;48.084;17.272;2023-03-24T01:22:37;27.90;;;20.17;;
62610;SDS011;48683;48.084;17.272;2023-03-24T01:25:04;32.40;;;21.63;;
62610;SDS011;48683;48.084;17.272;2023-03-24T01:27:31;33.33;;;20.73;;
62610;SDS011;48683;48.084;17.272;2023-03-24T01:29:58;29.33;;;20.90;;
62610;SDS011;48683;48.084;17.272;2023-03-24T01:34:49;24.73;;;19.00;;
62610;SDS011;48683;48.084;17.272;2023-03-24T01:37:15;26.20;;;19.90;;
62610;SDS011;48683;48.084;17.272;2023-03-24T01:39:40;22.90;;;18.73;;
62610;SDS011;48683;48.084;17.272;2023-03-24T01:42:09;22.88;;;18.20;;
62610;SDS011;48683;48.084;17.272;2023-03-24T01:44:41;26.58;;;17.75;;
62610;SDS011;48683;48.084;17.272;2023-03-24T01:47:07;23.83;;;18.92;;
62610;SDS011;48683;48.084;17.272;2023-03-24T01:49:37;22.23;;;18.52;;
62610;SDS011;48683;48.084;17.272;2023-03-24T01:52:08;25.58;;;18.63;;
62610;SDS011;48683;48.084;17.272;2023-03-24T01:54:45;28.13;;;18.95;;
62610;SDS011;48683;48.084;17.272;2023-03-24T01:57:16;25.10;;;19.23;;
62610;SDS011;48683;48.084;17.272;2023-03-24T01:59:47;27.55;;;20.63;;
62610;SDS011;48683;48.084;17.272;2023-03-24T02:02:15;25.27;;;19.33;;
62610;SDS011;48683;48.084;17.272;2023-03-24T02:04:42;27.00;;;19.90;;
62610;SDS011;48683;48.084;17.272;2023-03-24T02:10:13;21.88;;;17.55;;
62610;SDS011;48683;48.084;17.272;2023-03-24T02:12:41;25.90;;;18.45;;
62610;SDS011;48683;48.084;17.272;2023-03-24T02:15:08;24.42;;;19.40;;
62610;SDS011;48683;48.084;17.272;2023-03-24T02:20:51;28.20;;;19.48;;
62610;SDS011;48683;48.084;17.272;2023-03-24T02:45:32;22.15;;;17.85;;
62610;SDS011;48683;48.084;17.272;2023-03-24T02:50:51;19.08;;;15.88;;
62610;SDS011;48683;48.084;17.272;2023-03-24T02:56:08;24.98;;;16.48;;
62610;SDS011;48683;48.084;17.272;2023-03-24T02:58:41;25.83;;;16.92;;
62610;SDS011;48683;48.084;17.272;2023-03-24T03:01:14;19.95;;;15.25;;
62610;SDS011;48683;48.084;17.272;2023-03-24T03:03:55;20.67;;;16.00;;
62610;SDS011;48683;48.084;17.272;2023-03-24T03:06:26;22.13;;;16.17;;
62610;SDS011;48683;48.084;17.272;2023-03-24T03:08:55;20.70;;;15.80;;
62610;SDS011;48683;48.084;17.272;2023-03-24T03:11:22;22.38;;;16.52;;
62610;SDS011;48683;48.084;17.272;2023-03-24T03:13:52;19.88;;;15.38;;
62610;SDS011;48683;48.084;17.272;2023-03-24T03:16:40;24.98;;;15.60;;
62610;SDS011;48683;48.084;17.272;2023-03-24T03:19:21;20.42;;;14.80;;
62610;SDS011;48683;48.084;17.272;2023-03-24T03:21:50;20.70;;;14.07;;
62610;SDS011;48683;48.084;17.272;2023-03-24T03:24:21;20.27;;;15.32;;
62610;SDS011;48683;48.084;17.272;2023-03-24T03:26:52;20.88;;;15.07;;
62610;SDS011;48683;48.084;17.272;2023-03-24T03:29:21;20.30;;;15.13;;
62610;SDS011;48683;48.084;17.272;2023-03-24T03:31:52;21.67;;;15.18;;
62610;SDS011;48683;48.084;17.272;2023-03-24T03:34:29;17.65;;;14.68;;
62610;SDS011;48683;48.084;17.272;2023-03-24T03:37:04;19.38;;;14.35;;
62610;SDS011;48683;48.084;17.272;2023-03-24T03:39:45;16.27;;;14.23;;
62610;SDS011;48683;48.084;17.272;2023-03-24T03:42:15;17.10;;;14.38;;
62610;SDS011;48683;48.084;17.272;2023-03-24T03:44:40;22.00;;;14.75;;
62610;SDS011;48683;48.084;17.272;2023-03-24T03:47:06;25.70;;;15.30;;
62610;SDS011;48683;48.084;17.272;2023-03-24T03:49:31;20.45;;;14.13;;
62610;SDS011;48683;48.084;17.272;2023-03-24T03:51:57;19.05;;;14.30;;
62610;SDS011;48683;48.084;17.272;2023-03-24T03:54:22;15.98;;;12.98;;
62610;SDS011;48683;48.084;17.272;2023-03-24T03:56:52;19.05;;;12.55;;
62610;SDS011;48683;48.084;17.272;2023-03-24T03:59:25;17.30;;;13.15;;
62610;SDS011;48683;48.084;17.272;2023-03-24T04:01:50;20.17;;;13.63;;
62610;SDS011;48683;48.084;17.272;2023-03-24T04:15:44;16.55;;;13.13;;
62610;SDS011;48683;48.084;17.272;2023-03-24T04:18:39;16.23;;;13.10;;
62610;SDS011;48683;48.084;17.272;2023-03-24T04:29:29;14.35;;;11.85;;
62610;SDS011;48683;48.084;17.272;2023-03-24T04:32:11;16.08;;;12.60;;
62610;SDS011;48683;48.084;17.272;2023-03-24T04:34:44;18.08;;;12.88;;
62610;SDS011;48683;48.084;17.272;2023-03-24T04:37:16;17.05;;;13.13;;
62610;SDS011;48683;48.084;17.272;2023-03-24T04:39:44;18.45;;;13.07;;
62610;SDS011;48683;48.084;17.272;2023-03-24T04:42:13;16.80;;;12.98;;
62610;SDS011;48683;48.084;17.272;2023-03-24T04:44:44;19.33;;;13.30;;
62610;SDS011;48683;48.084;17.272;2023-03-24T04:47:10;15.27;;;12.88;;
62610;SDS011;48683;48.084;17.272;2023-03-24T04:49:39;17.57;;;13.57;;
62610;SDS011;48683;48.084;17.272;2023-03-24T04:52:05;20.58;;;13.38;;
62610;SDS011;48683;48.084;17.272;2023-03-24T04:54:31;17.40;;;13.50;;
62610;SDS011;48683;48.084;17.272;2023-03-24T04:56:57;20.88;;;13.82;;
62610;SDS011;48683;48.084;17.272;2023-03-24T04:59:25;16.73;;;13.05;;
62610;SDS011;48683;48.084;17.272;2023-03-24T05:01:54;15.23;;;12.45;;
62610;SDS011;48683;48.084;17.272;2023-03-24T05:04:22;15.95;;;12.48;;
62610;SDS011;48683;48.084;17.272;2023-03-24T05:06:49;18.75;;;13.23;;
62610;SDS011;48683;48.084;17.272;2023-03-24T05:09:15;16.48;;;11.77;;
62610;SDS011;48683;48.084;17.272;2023-03-24T05:11:47;18.58;;;11.85;;
62610;SDS011;48683;48.084;17.272;2023-03-24T05:14:13;16.48;;;11.38;;
62610;SDS011;48683;48.084;17.272;2023-03-24T05:16:39;19.42;;;11.82;;
62610;SDS011;48683;48.084;17.272;2023-03-24T05:19:05;17.00;;;12.48;;
62610;SDS011;48683;48.084;17.272;2023-03-24T05:21:30;17.45;;;12.27;;
62610;SDS011;48683;48.084;17.272;2023-03-24T05:23:56;15.57;;;11.82;;
62610;SDS011;48683;48.084;17.272;2023-03-24T05:26:21;14.85;;;11.90;;
62610;SDS011;48683;48.084;17.272;2023-03-24T05:28:47;15.82;;;12.38;;
62610;SDS011;48683;48.084;17.272;2023-03-24T05:31:12;14.27;;;11.60;;
62610;SDS011;48683;48.084;17.272;2023-03-24T05:33:38;22.55;;;12.95;;
62610;SDS011;48683;48.084;17.272;2023-03-24T05:36:03;21.48;;;12.13;;
62610;SDS011;48683;48.084;17.272;2023-03-24T05:38:29;14.75;;;11.63;;
62610;SDS011;48683;48.084;17.272;2023-03-24T05:40:55;16.63;;;12.43;;
62610;SDS011;48683;48.084;17.272;2023-03-24T05:43:22;16.77;;;11.38;;
62610;SDS011;48683;48.084;17.272;2023-03-24T05:45:47;14.82;;;11.13;;
62610;SDS011;48683;48.084;17.272;2023-03-24T05:48:13;16.33;;;11.32;;
62610;SDS011;48683;48.084;17.272;2023-03-24T05:50:38;15.00;;;12.73;;
62610;SDS011;48683;48.084;17.272;2023-03-24T05:53:03;15.60;;;11.90;;
62610;SDS011;48683;48.084;17.272;2023-03-24T05:55:29;14.70;;;12.38;;
62610;SDS011;48683;48.084;17.272;2023-03-24T05:57:55;18.00;;;12.07;;
62610;SDS011;48683;48.084;17.272;2023-03-24T06:00:20;16.10;;;12.05;;
62610;SDS011;48683;48.084;17.272;2023-03-24T06:02:47;15.77;;;11.95;;
62610;SDS011;48683;48.084;17.272;2023-03-24T06:05:13;16.77;;;11.57;;
62610;SDS011;48683;48.084;17.272;2023-03-24T06:07:39;14.38;;;11.55;;
62610;SDS011;48683;48.084;17.272;2023-03-24T06:10:06;14.35;;;11.52;;
62610;SDS011;48683;48.084;17.272;2023-03-24T06:12:35;17.17;;;12.02;;
62610;SDS011;48683;48.084;17.272;2023-03-24T06:15:00;13.23;;;10.88;;
62610;SDS011;48683;48.084;17.272;2023-03-24T06:17:27;16.85;;;12.30;;
62610;SDS011;48683;48.084;17.272;2023-03-24T06:19:54;15.07;;;11.07;;
62610;SDS011;48683;48.084;17.272;2023-03-24T06:22:27;14.35;;;11.52;;
62610;SDS011;48683;48.084;17.272;2023-03-24T06:24:53;15.38;;;10.85;;
62610;SDS011;48683;48.084;17.272;2023-03-24T06:27:20;13.15;;;11.75;;
62610;SDS011;48683;48.084;17.272;2023-03-24T06:29:49;16.45;;;11.07;;
62610;SDS011;48683;48.084;17.272;2023-03-24T06:32:17;13.75;;;10.52;;
62610;SDS011;48683;48.084;17.272;2023-03-24T06:34:43;18.77;;;11.52;;
62610;SDS011;48683;48.084;17.272;2023-03-24T06:37:09;13.25;;;11.25;;
62610;SDS011;48683;48.084;17.272;2023-03-24T06:39:34;12.60;;;10.05;;
62610;SDS011;48683;48.084;17.272;2023-03-24T06:41:59;19.77;;;10.60;;
62610;SDS011;48683;48.084;17.272;2023-03-24T06:44:25;16.42;;;10.23;;
62610;SDS011;48683;48.084;17.272;2023-03-24T06:46:50;15.70;;;10.60;;
62610;SDS011;48683;48.084;17.272;2023-03-24T06:49:15;17.42;;;10.73;;
62610;SDS011;48683;48.084;17.272;2023-03-24T06:51:41;13.13;;;10.60;;
62610;SDS011;48683;48.084;17.272;2023-03-24T06:54:06;14.70;;;9.90;;
62610;SDS011;48683;48.084;17.272;2023-03-24T06:56:32;13.55;;;10.25;;
62610;SDS011;48683;48.084;17.272;2023-03-24T06:58:58;13.85;;;10.25;;
62610;SDS011;48683;48.084;17.272;2023-03-24T07:01:24;17.40;;;11.45;;
62610;SDS011;48683;48.084;17.272;2023-03-24T07:03:50;12.27;;;9.40;;
62610;SDS011;48683;48.084;17.272;2023-03-24T07:06:15;24.77;;;10.55;;
62610;SDS011;48683;48.084;17.272;2023-03-24T07:08:42;14.13;;;9.30;;
62610;SDS011;48683;48.084;17.272;2023-03-24T07:11:08;13.57;;;10.20;;
62610;SDS011;48683;48.084;17.272;2023-03-24T07:13:34;12.63;;;9.48;;
62610;SDS011;48683;48.084;17.272;2023-03-24T07:16:00;16.48;;;9.40;;
62610;SDS011;48683;48.084;17.272;2023-03-24T07:18:25;18.50;;;9.93;;
62610;SDS011;48683;48.084;17.272;2023-03-24T07:20:51;19.90;;;10.02;;
62610;SDS011;48683;48.084;17.272;2023-03-24T07:23:16;15.10;;;10.13;;
62610;SDS011;48683;48.084;17.272;2023-03-24T07:25:42;17.77;;;9.50;;
62610;SDS011;48683;48.084;17.272;2023-03-24T07:28:08;13.77;;;9.75;;
62610;SDS011;48683;48.084;17.272;2023-03-24T07:30:34;12.88;;;10.07;;
62610;SDS011;48683;48.084;17.272;2023-03-24T07:33:00;14.88;;;9.63;;
62610;SDS011;48683;48.084;17.272;2023-03-24T07:35:27;14.27;;;10.20;;
62610;SDS011;48683;48.084;17.272;2023-03-24T07:37:56;12.68;;;9.43;;
62610;SDS011;48683;48.084;17.272;2023-03-24T07:40:22;12.75;;;9.63;;
62610;SDS011;48683;48.084;17.272;2023-03-24T07:42:48;13.55;;;9.80;;
62610;SDS011;48683;48.084;17.272;2023-03-24T07:45:14;15.55;;;9.48;;
62610;SDS011;48683;48.084;17.272;2023-03-24T07:47:41;13.48;;;9.75;;
62610;SDS011;48683;48.084;17.272;2023-03-24T07:50:08;13.80;;;10.38;;
62610;SDS011;48683;48.084;17.272;2023-03-24T07:52:38;10.95;;;9.85;;
62610;SDS011;48683;48.084;17.272;2023-03-24T07:55:05;11.57;;;9.65;;
62610;SDS011;48683;48.084;17.272;2023-03-24T07:57:32;11.32;;;9.60;;
62610;SDS011;48683;48.084;17.272;2023-03-24T08:00:01;14.38;;;9.90;;
62610;SDS011;48683;48.084;17.272;2023-03-24T08:02:38;13.13;;;9.68;;
62610;SDS011;48683;48.084;17.272;2023-03-24T08:05:04;14.38;;;9.90;;
62610;SDS011;48683;48.084;17.272;2023-03-24T08:07:29;15.23;;;9.95;;
62610;SDS011;48683;48.084;17.272;2023-03-24T08:09:55;12.30;;;9.68;;
62610;SDS011;48683;48.084;17.272;2023-03-24T08:12:20;11.93;;;10.23;;
62610;SDS011;48683;48.084;17.272;2023-03-24T08:14:45;13.25;;;10.55;;
62610;SDS011;48683;48.084;17.272;2023-03-24T08:17:11;12.55;;;9.98;;
62610;SDS011;48683;48.084;17.272;2023-03-24T08:19:36;14.30;;;10.20;;
62610;SDS011;48683;48.084;17.272;2023-03-24T08:22:02;14.98;;;11.13;;
62610;SDS011;48683;48.084;17.272;2023-03-24T08:24:28;12.82;;;10.27;;
62610;SDS011;48683;48.084;17.272;2023-03-24T08:26:53;12.88;;;9.88;;
62610;SDS011;48683;48.084;17.272;2023-03-24T08:29:22;16.73;;;10.68;;
62610;SDS011;48683;48.084;17.272;2023-03-24T08:31:48;11.55;;;9.18;;
62610;SDS011;48683;48.084;17.272;2023-03-24T08:34:13;16.73;;;9.30;;
62610;SDS011;48683;48.084;17.272;2023-03-24T08:36:38;9.98;;;8.70;;
62610;SDS011;48683;48.084;17.272;2023-03-24T08:39:06;13.00;;;8.82;;
62610;SDS011;48683;48.084;17.272;2023-03-24T08:41:33;12.95;;;9.00;;
62610;SDS011;48683;48.084;17.272;2023-03-24T08:44:00;13.23;;;8.47;;
62610;SDS011;48683;48.084;17.272;2023-03-24T08:46:28;15.98;;;8.90;;
62610;SDS011;48683;48.084;17.272;2023-03-24T08:48:54;40.67;;;12.10;;
62610;SDS011;48683;48.084;17.272;2023-03-24T08:51:21;13.95;;;9.55;;
62610;SDS011;48683;48.084;17.272;2023-03-24T08:53:47;13.02;;;8.93;;
62610;SDS011;48683;48.084;17.272;2023-03-24T08:56:12;13.63;;;9.20;;
62610;SDS011;48683;48.084;17.272;2023-03-24T08:58:38;12.90;;;9.00;;
62610;SDS011;48683;48.084;17.272;2023-03-24T09:01:03;11.05;;;7.93;;
62610;SDS011;48683;48.084;17.272;2023-03-24T09:03:29;9.77;;;8.10;;
62610;SDS011;48683;48.084;17.272;2023-03-24T09:05:56;11.10;;;7.38;;
62610;SDS011;48683;48.084;17.272;2023-03-24T09:08:22;12.25;;;8.15;;
62610;SDS011;48683;48.084;17.272;2023-03-24T09:10:47;11.20;;;8.10;;
62610;SDS011;48683;48.084;17.272;2023-03-24T09:13:14;8.40;;;7.15;;
62610;SDS011;48683;48.084;17.272;2023-03-24T09:15:44;12.52;;;7.95;;
62610;SDS011;48683;48.084;17.272;2023-03-24T09:18:11;13.27;;;8.02;;
62610;SDS011;48683;48.084;17.272;2023-03-24T09:20:36;9.80;;;7.40;;
62610;SDS011;48683;48.084;17.272;2023-03-24T09:23:02;9.75;;;7.13;;
62610;SDS011;48683;48.084;17.272;2023-03-24T09:25:27;8.83;;;7.03;;
62610;SDS011;48683;48.084;17.272;2023-03-24T09:27:52;10.00;;;6.37;;
62610;SDS011;48683;48.084;17.272;2023-03-24T09:30:18;8.57;;;6.53;;
62610;SDS011;48683;48.084;17.272;2023-03-24T09:32:44;7.80;;;6.47;;
62610;SDS011;48683;48.084;17.272;2023-03-24T09:35:09;7.10;;;6.40;;
62610;SDS011;48683;48.084;17.272;2023-03-24T09:37:36;10.27;;;7.30;;
62610;SDS011;48683;48.084;17.272;2023-03-24T09:40:03;8.18;;;6.90;;
62610;SDS011;48683;48.084;17.272;2023-03-24T09:42:31;7.40;;;5.80;;
62610;SDS011;48683;48.084;17.272;2023-03-24T09:45:01;15.02;;;6.72;;
62610;SDS011;48683;48.084;17.272;2023-03-24T09:47:45;14.85;;;6.90;;
62610;SDS011;48683;48.084;17.272;2023-03-24T09:50:17;17.13;;;7.20;;
62610;SDS011;48683;48.084;17.272;2023-03-24T09:52:46;11.88;;;6.82;;
62610;SDS011;48683;48.084;17.272;2023-03-24T09:55:18;8.93;;;6.60;;
62610;SDS011;48683;48.084;17.272;2023-03-24T09:57:48;7.15;;;6.35;;
62610;SDS011;48683;48.084;17.272;2023-03-24T10:02:47;7.45;;;6.35;;
62610;SDS011;48683;48.084;17.272;2023-03-24T10:05:18;9.27;;;6.22;;
62610;SDS011;48683;48.084;17.272;2023-03-24T10:07:51;9.43;;;6.15;;
62610;SDS011;48683;48.084;17.272;2023-03-24T10:10:35;9.88;;;6.82;;
62610;SDS011;48683;48.084;17.272;2023-03-24T10:13:28;8.68;;;6.45;;
62610;SDS011;48683;48.084;17.272;2023-03-24T10:16:17;9.38;;;7.07;;
62610;SDS011;48683;48.084;17.272;2023-03-24T10:18:51;9.00;;;6.70;;
62610;SDS011;48683;48.084;17.272;2023-03-24T10:21:40;10.50;;;6.68;;
62610;SDS011;48683;48.084;17.272;2023-03-24T10:24:24;8.50;;;6.30;;
62610;SDS011;48683;48.084;17.272;2023-03-24T10:27:19;12.75;;;6.93;;
62610;SDS011;48683;48.084;17.272;2023-03-24T10:29:59;13.57;;;7.53;;
62610;SDS011;48683;48.084;17.272;2023-03-24T10:32:30;11.63;;;7.07;;
62610;SDS011;48683;48.084;17.272;2023-03-24T10:34:59;10.27;;;7.53;;
62610;SDS011;48683;48.084;17.272;2023-03-24T10:37:33;10.32;;;7.07;;
62610;SDS011;48683;48.084;17.272;2023-03-24T10:39:59;10.60;;;7.33;;
62610;SDS011;48683;48.084;17.272;2023-03-24T10:42:25;9.57;;;8.48;;
62610;SDS011;48683;48.084;17.272;2023-03-24T10:44:56;10.30;;;7.10;;
62610;SDS011;48683;48.084;17.272;2023-03-24T10:47:25;9.00;;;7.33;;
62610;SDS011;48683;48.084;17.272;2023-03-24T10:49:59;8.50;;;7.00;;
62610;SDS011;48683;48.084;17.272;2023-03-24T10:52:26;13.05;;;7.32;;
62610;SDS011;48683;48.084;17.272;2023-03-24T10:55:01;12.27;;;7.82;;
62610;SDS011;48683;48.084;17.272;2023-03-24T10:57:30;8.25;;;6.68;;
62610;SDS011;48683;48.084;17.272;2023-03-24T10:59:57;11.30;;;7.35;;
62610;SDS011;48683;48.084;17.272;2023-03-24T11:02:28;12.25;;;7.18;;
62610;SDS011;48683;48.084;17.272;2023-03-24T11:04:59;11.05;;;7.20;;
62610;SDS011;48683;48.084;17.272;2023-03-24T11:07:36;11.88;;;6.70;;
62610;SDS011;48683;48.084;17.272;2023-03-24T11:12:31;9.23;;;7.47;;
62610;SDS011;48683;48.084;17.272;2023-03-24T11:17:44;10.70;;;8.15;;
62610;SDS011;48683;48.084;17.272;2023-03-24T11:20:15;11.15;;;8.55;;
62610;SDS011;48683;48.084;17.272;2023-03-24T11:25:52;12.18;;;7.97;;
62610;SDS011;48683;48.084;17.272;2023-03-24T11:28:39;10.63;;;8.98;;
62610;SDS011;48683;48.084;17.272;2023-03-24T11:31:23;12.07;;;9.05;;
62610;SDS011;48683;48.084;17.272;2023-03-24T11:33:54;9.30;;;8.30;;
62610;SDS011;48683;48.084;17.272;2023-03-24T11:39:10;11.82;;;9.10;;
62610;SDS011;48683;48.084;17.272;2023-03-24T11:41:38;12.50;;;8.43;;
62610;SDS011;48683;48.084;17.272;2023-03-24T11:44:15;11.23;;;8.85;;
62610;SDS011;48683;48.084;17.272;2023-03-24T11:46:40;9.82;;;8.52;;
62610;SDS011;48683;48.084;17.272;2023-03-24T11:49:08;13.40;;;8.02;;
62610;SDS011;48683;48.084;17.272;2023-03-24T11:51:38;12.15;;;9.18;;
62610;SDS011;48683;48.084;17.272;2023-03-24T11:54:09;14.27;;;9.50;;
62610;SDS011;48683;48.084;17.272;2023-03-24T11:56:44;11.73;;;8.68;;
62610;SDS011;48683;48.084;17.272;2023-03-24T12:01:48;10.90;;;8.52;;
62610;SDS011;48683;48.084;17.272;2023-03-24T12:06:55;15.05;;;9.95;;
62610;SDS011;48683;48.084;17.272;2023-03-24T12:17:23;15.35;;;10.15;;
62610;SDS011;48683;48.084;17.272;2023-03-24T12:20:01;12.20;;;9.32;;
62610;SDS011;48683;48.084;17.272;2023-03-24T12:33:32;12.77;;;10.02;;
62610;SDS011;48683;48.084;17.272;2023-03-24T12:38:51;13.40;;;9.63;;
62610;SDS011;48683;48.084;17.272;2023-03-24T12:47:27;12.85;;;9.50;;
62610;SDS011;48683;48.084;17.272;2023-03-24T12:55:29;15.05;;;9.23;;
62610;SDS011;48683;48.084;17.272;2023-03-24T13:00:37;12.45;;;9.05;;
62610;SDS011;48683;48.084;17.272;2023-03-24T13:03:15;10.25;;;8.98;;
62610;SDS011;48683;48.084;17.272;2023-03-24T13:05:51;11.27;;;8.77;;
62610;SDS011;48683;48.084;17.272;2023-03-24T13:08:23;10.95;;;9.05;;
62610;SDS011;48683;48.084;17.272;2023-03-24T13:10:57;10.25;;;9.02;;
62610;SDS011;48683;48.084;17.272;2023-03-24T13:13:39;14.75;;;9.25;;
62610;SDS011;48683;48.084;17.272;2023-03-24T13:18:39;11.55;;;9.23;;
62610;SDS011;48683;48.084;17.272;2023-03-24T13:21:19;15.75;;;9.52;;
62610;SDS011;48683;48.084;17.272;2023-03-24T13:23:58;17.38;;;10.02;;
62610;SDS011;48683;48.084;17.272;2023-03-24T13:32:02;12.98;;;9.52;;
62610;SDS011;48683;48.084;17.272;2023-03-24T13:37:04;11.52;;;9.05;;
62610;SDS011;48683;48.084;17.272;2023-03-24T13:39:34;12.18;;;8.68;;
62610;SDS011;48683;48.084;17.272;2023-03-24T13:42:00;14.57;;;8.98;;
62610;SDS011;48683;48.084;17.272;2023-03-24T13:44:40;13.13;;;8.60;;
62610;SDS011;48683;48.084;17.272;2023-03-24T13:49:52;10.30;;;8.88;;
62610;SDS011;48683;48.084;17.272;2023-03-24T13:52:30;9.50;;;8.30;;
62610;SDS011;48683;48.084;17.272;2023-03-24T13:55:06;11.10;;;8.02;;
62610;SDS011;48683;48.084;17.272;2023-03-24T13:57:39;11.88;;;8.50;;
62610;SDS011;48683;48.084;17.272;2023-03-24T14:02:46;12.60;;;8.80;;
62610;SDS011;48683;48.084;17.272;2023-03-24T14:08:15;10.90;;;8.32;;
62610;SDS011;48683;48.084;17.272;2023-03-24T14:10:42;14.95;;;8.85;;
62610;SDS011;48683;48.084;17.272;2023-03-24T14:18:37;14.77;;;9.20;;
62610;SDS011;48683;48.084;17.272;2023-03-24T14:21:03;15.18;;;9.02;;
62610;SDS011;48683;48.084;17.272;2023-03-24T14:28:46;17.67;;;9.80;;
62610;SDS011;48683;48.084;17.272;2023-03-24T14:33:55;18.35;;;9.93;;
62610;SDS011;48683;48.084;17.272;2023-03-24T14:39:16;14.73;;;8.85;;
62610;SDS011;48683;48.084;17.272;2023-03-24T14:44:51;15.90;;;9.43;;
62610;SDS011;48683;48.084;17.272;2023-03-24T14:47:18;18.90;;;9.63;;
62610;SDS011;48683;48.084;17.272;2023-03-24T14:49:55;21.83;;;9.38;;
62610;SDS011;48683;48.084;17.272;2023-03-24T14:52:22;13.00;;;9.43;;
62610;SDS011;48683;48.084;17.272;2023-03-24T14:54:55;14.20;;;10.02;;
62610;SDS011;48683;48.084;17.272;2023-03-24T14:57:24;13.27;;;10.05;;
62610;SDS011;48683;48.084;17.272;2023-03-24T15:00:13;13.30;;;8.95;;
62610;SDS011;48683;48.084;17.272;2023-03-24T15:02:41;12.07;;;8.98;;
62610;SDS011;48683;48.084;17.272;2023-03-24T15:10:25;16.92;;;11.57;;
62610;SDS011;48683;48.084;17.272;2023-03-24T15:12:55;20.98;;;10.65;;
62610;SDS011;48683;48.084;17.272;2023-03-24T15:15:21;19.55;;;11.52;;
62610;SDS011;48683;48.084;17.272;2023-03-24T15:17:47;15.18;;;9.38;;
62610;SDS011;48683;48.084;17.272;2023-03-24T15:22:48;18.77;;;10.00;;
62610;SDS011;48683;48.084;17.272;2023-03-24T15:25:15;14.90;;;10.35;;
62610;SDS011;48683;48.084;17.272;2023-03-24T15:27:47;14.85;;;10.57;;
62610;SDS011;48683;48.084;17.272;2023-03-24T15:30:14;13.15;;;10.00;;
62610;SDS011;48683;48.084;17.272;2023-03-24T15:32:40;18.70;;;10.10;;
62610;SDS011;48683;48.084;17.272;2023-03-24T15:35:11;17.40;;;9.80;;
62610;SDS011;48683;48.084;17.272;2023-03-24T15:37:40;15.80;;;10.95;;
62610;SDS011;48683;48.084;17.272;2023-03-24T15:42:49;14.02;;;9.93;;
62610;SDS011;48683;48.084;17.272;2023-03-24T15:45:20;11.87;;;9.30;;
62610;SDS011;48683;48.084;17.272;2023-03-24T15:48:12;13.63;;;9.70;;
62610;SDS011;48683;48.084;17.272;2023-03-24T15:50:41;16.60;;;9.77;;
62610;SDS011;48683;48.084;17.272;2023-03-24T15:55:43;14.03;;;9.77;;
62610;SDS011;48683;48.084;17.272;2023-03-24T15:58:19;11.50;;;10.00;;
62610;SDS011;48683;48.084;17.272;2023-03-24T16:00:51;15.63;;;9.57;;
62610;SDS011;48683;48.084;17.272;2023-03-24T16:03:18;17.85;;;10.40;;
62610;SDS011;48683;48.084;17.272;2023-03-24T16:05:50;15.77;;;10.32;;
62610;SDS011;48683;48.084;17.272;2023-03-24T16:08:33;14.27;;;11.00;;
62610;SDS011;48683;48.084;17.272;2023-03-24T16:11:04;18.15;;;11.25;;
62610;SDS011;48683;48.084;17.272;2023-03-24T16:13:31;18.25;;;11.93;;
62610;SDS011;48683;48.084;17.272;2023-03-24T16:15:59;16.75;;;12.18;;
62610;SDS011;48683;48.084;17.272;2023-03-24T16:18:46;17.00;;;10.85;;
62610;SDS011;48683;48.084;17.272;2023-03-24T16:23:49;16.83;;;11.25;;
62610;SDS011;48683;48.084;17.272;2023-03-24T16:26:17;20.13;;;11.07;;
62610;SDS011;48683;48.084;17.272;2023-03-24T16:28:47;16.35;;;10.95;;
62610;SDS011;48683;48.084;17.272;2023-03-24T16:31:18;13.75;;;10.25;;
62610;SDS011;48683;48.084;17.272;2023-03-24T16:33:48;15.88;;;10.88;;
62610;SDS011;48683;48.084;17.272;2023-03-24T16:36:14;16.52;;;10.23;;
62610;SDS011;48683;48.084;17.272;2023-03-24T16:38:42;16.48;;;10.88;;
62610;SDS011;48683;48.084;17.272;2023-03-24T16:41:08;12.27;;;9.90;;
62610;SDS011;48683;48.084;17.272;2023-03-24T16:43:35;15.50;;;10.57;;
62610;SDS011;48683;48.084;17.272;2023-03-24T16:46:01;13.37;;;9.67;;
62610;SDS011;48683;48.084;17.272;2023-03-24T16:48:27;14.80;;;9.10;;
62610;SDS011;48683;48.084;17.272;2023-03-24T16:50:52;12.10;;;9.47;;
62610;SDS011;48683;48.084;17.272;2023-03-24T16:53:19;11.82;;;9.27;;
62610;SDS011;48683;48.084;17.272;2023-03-24T16:55:45;12.33;;;8.90;;
62610;SDS011;48683;48.084;17.272;2023-03-24T16:58:12;15.32;;;9.50;;
62610;SDS011;48683;48.084;17.272;2023-03-24T17:00:38;14.20;;;10.13;;
62610;SDS011;48683;48.084;17.272;2023-03-24T17:03:07;18.98;;;10.45;;
62610;SDS011;48683;48.084;17.272;2023-03-24T17:08:08;14.55;;;10.40;;
62610;SDS011;48683;48.084;17.272;2023-03-24T17:10:34;15.13;;;10.33;;
62610;SDS011;48683;48.084;17.272;2023-03-24T17:13:00;13.13;;;9.93;;
62610;SDS011;48683;48.084;17.272;2023-03-24T17:15:27;11.90;;;9.87;;
62610;SDS011;48683;48.084;17.272;2023-03-24T17:17:54;17.55;;;7.63;;